Time;durP1;ratioP1;P1;durP2;ratioP2;P2;SDS_P1;SDS_P2;PMS_P1;PMS_P2;Temp;Humidity;BMP_temperature;BMP_pressure;BME280_temperature;BME280_humidity;BME280_pressure;Samples;Min_cycle;Max_cycle;Signal;HPM_P1;HPM_P2
2022/09/13 00:01:04;;;;;;;12.35;5.32;;;23.00;99.90;;;;;;5065732;28;20025;-80
2022/09/13 00:03:30;;;;;;;9.95;6.03;;;23.00;99.90;;;;;;5062556;28;20017;-79
2022/09/13 00:06:10;;;;;;;6.45;5.80;;;23.00;99.90;;;;;;5069744;28;20032;-80
2022/09/13 00:08:38;;;;;;;7.35;5.55;;;22.90;99.90;;;;;;5073829;28;20099;-79
2022/09/13 00:11:33;;;;;;;6.25;5.10;;;22.90;99.90;;;;;;5072501;28;20032;-79
2022/09/13 00:14:02;;;;;;;13.40;6.47;;;22.90;99.90;;;;;;5076868;28;20396;-80
2022/09/13 00:16:36;;;;;;;11.85;7.20;;;22.80;99.90;;;;;;5071988;28;20043;-80
2022/09/13 00:19:06;;;;;;;11.65;5.93;;;22.80;99.90;;;;;;5063914;28;20091;-78
2022/09/13 00:21:48;;;;;;;7.20;5.78;;;22.80;99.90;;;;;;5074736;28;20032;-80
2022/09/13 00:24:17;;;;;;;7.72;5.93;;;22.80;99.90;;;;;;5076643;28;20384;-80
2022/09/13 00:26:45;;;;;;;12.88;5.82;;;22.80;99.90;;;;;;5062000;28;20029;-80
2022/09/13 00:29:11;;;;;;;9.85;6.20;;;22.80;99.90;;;;;;5059364;28;20046;-79
2022/09/13 00:32:03;;;;;;;7.82;6.10;;;22.80;99.90;;;;;;5060735;28;20480;-80
2022/09/13 00:34:41;;;;;;;;;;;22.70;99.90;;;;;;5061154;28;20091;-80
2022/09/13 00:37:07;;;;;;;9.70;5.85;;;22.70;99.90;;;;;;5064204;28;19916;-78
2022/09/13 00:39:46;;;;;;;14.38;6.40;;;22.70;99.90;;;;;;5063863;28;20111;-80
2022/09/13 00:42:19;;;;;;;10.27;6.78;;;22.70;99.90;;;;;;5068793;28;20016;-79
2022/09/13 00:44:58;;;;;;;9.52;5.93;;;22.70;99.90;;;;;;5072747;28;20115;-79
2022/09/13 00:47:33;;;;;;;6.88;5.47;;;22.80;99.90;;;;;;5068085;28;20017;-80
2022/09/13 00:50:12;;;;;;;10.48;6.40;;;22.80;99.90;;;;;;5073175;28;20039;-79
2022/09/13 00:52:49;;;;;;;10.52;5.85;;;22.80;99.90;;;;;;5072800;28;20400;-78
2022/09/13 00:55:39;;;;;;;;;;;;;;;;;;;;;
2022/09/13 00:58:11;;;;;;;7.28;5.70;;;22.90;99.90;;;;;;5063536;28;20115;-79
2022/09/13 01:00:40;;;;;;;8.38;5.45;;;22.90;99.90;;;;;;5077684;28;20059;-79
2022/09/13 01:03:13;;;;;;;11.18;6.10;;;23.00;99.90;;;;;;5071612;28;20169;-79
2022/09/13 01:05:47;;;;;;;8.48;5.55;;;23.00;99.90;;;;;;5068795;28;20404;-78
2022/09/13 01:08:21;;;;;;;8.55;4.97;;;23.00;99.90;;;;;;5068940;28;20021;-79
2022/09/13 01:10:52;;;;;;;11.13;6.10;;;23.10;99.90;;;;;;5065503;28;20070;-79
2022/09/13 01:13:26;;;;;;;13.23;5.95;;;23.10;99.90;;;;;;5062286;28;20112;-79
2022/09/13 01:15:52;;;;;;;9.90;5.13;;;23.10;99.90;;;;;;5069986;28;20056;-78
2022/09/13 01:18:29;;;;;;;8.50;4.55;;;23.10;99.90;;;;;;5066373;28;20523;-78
2022/09/13 01:21:13;;;;;;;9.15;5.45;;;23.20;99.90;;;;;;5070891;28;20029;-78
2022/09/13 01:23:52;;;;;;;8.02;4.97;;;23.20;99.90;;;;;;5073137;28;20032;-79
2022/09/13 01:26:44;;;;;;;7.50;4.90;;;23.20;99.90;;;;;;5072997;28;20025;-79
2022/09/13 01:29:26;;;;;;;;;;;;;;;;;;;;;
2022/09/13 01:32:03;;;;;;;13.48;5.03;;;23.20;99.90;;;;;;5075364;28;20030;-80
2022/09/13 01:35:01;;;;;;;9.20;5.15;;;23.30;99.90;;;;;;5074413;28;20036;-77
2022/09/13 01:41:06;;;;;;;;;;;;;;;;;;;;;
2022/09/13 01:44:04;;;;;;;9.40;4.65;;;23.20;99.90;;;;;;5066015;28;20043;-79
2022/09/13 01:46:51;;;;;;;12.10;4.78;;;23.10;99.90;;;;;;5076922;28;20025;-79
2022/09/13 01:49:17;;;;;;;7.70;4.78;;;23.10;99.90;;;;;;5062463;28;20171;-79
2022/09/13 01:52:00;;;;;;;7.95;4.80;;;23.10;99.90;;;;;;5069767;28;20048;-79
2022/09/13 01:55:03;;;;;;;;;;;;;;;;;;;;;
2022/09/13 01:58:01;;;;;;;9.25;5.32;;;23.00;99.90;;;;;;5063412;28;20128;-79
2022/09/13 02:00:57;;;;;;;6.40;4.78;;;23.00;99.90;;;;;;5061733;28;20035;-79
2022/09/13 02:04:03;;;;;;;7.63;5.25;;;23.00;99.90;;;;;;5063895;28;20041;-79
2022/09/13 02:06:44;;;;;;;13.50;5.25;;;22.90;99.90;;;;;;5052317;28;20377;-79
2022/09/13 02:09:29;;;;;;;8.75;4.38;;;22.80;99.90;;;;;;5070903;28;20055;-79
2022/09/13 02:12:29;;;;;;;6.70;4.57;;;22.80;99.90;;;;;;5068346;28;20021;-79
2022/09/13 02:15:49;;;;;;;;;;;;;;;;;;;;;
2022/09/13 02:18:53;;;;;;;;;;;;;;;;;;;;;
2022/09/13 02:21:55;;;;;;;;;;;;;;;;;;;;;
2022/09/13 02:24:46;;;;;;;;;;;;;;;;;;;;;
2022/09/13 02:27:22;;;;;;;7.60;4.80;;;22.60;99.90;;;;;;5063312;28;20100;-78
2022/09/13 02:30:13;;;;;;;;;;;;;;;;;;;;;
2022/09/13 02:32:56;;;;;;;8.18;4.88;;;22.50;99.90;;;;;;5065545;28;20032;-81
2022/09/13 02:35:47;;;;;;;11.15;5.68;;;22.50;99.90;;;;;;5066625;28;20048;-79
2022/09/13 02:38:42;;;;;;;7.70;5.07;;;22.40;99.90;;;;;;5073397;28;20028;-79
2022/09/13 02:41:39;;;;;;;;;;;;;;;;;;;;;
2022/09/13 02:44:15;;;;;;;7.07;4.70;;;22.40;99.90;;;;;;5070728;28;20108;-79
2022/09/13 02:47:07;;;;;;;9.25;5.18;;;22.40;99.90;;;;;;5069688;28;20104;-79
2022/09/13 02:50:02;;;;;;;6.72;5.15;;;22.40;99.90;;;;;;5062395;28;20017;-79
2022/09/13 02:52:58;;;;;;;9.13;6.10;;;22.50;99.90;;;;;;5078643;28;20024;-79
2022/09/13 02:55:56;;;;;;;10.13;5.60;;;22.60;99.90;;;;;;5072716;28;20024;-79
2022/09/13 02:58:40;;;;;;;6.82;5.13;;;22.80;99.90;;;;;;5078356;28;20028;-79
2022/09/13 03:01:25;;;;;;;;;;;;;;;;;;;;;
2022/09/13 03:03:53;;;;;;;7.95;6.07;;;23.00;99.90;;;;;;5065451;28;20548;-78
2022/09/13 03:06:36;;;;;;;9.18;5.30;;;23.10;99.90;;;;;;5066046;28;20035;-79
2022/09/13 03:09:05;;;;;;;8.98;6.45;;;23.30;99.90;;;;;;5069024;28;20481;-79
2022/09/13 03:11:52;;;;;;;7.85;6.00;;;23.30;99.90;;;;;;5071178;28;20119;-78
2022/09/13 03:14:22;;;;;;;14.93;5.88;;;23.40;99.90;;;;;;5075302;28;20160;-78
2022/09/13 03:17:19;;;;;;;;;;;;;;;;;;;;;
2022/09/13 03:20:51;;;;;;;11.05;5.90;;;23.50;99.90;;;;;;5075569;28;20103;-79
2022/09/13 03:23:09;;;;;;;9.75;6.18;;;23.50;99.90;;;;;;5062254;28;20455;-79
2022/09/13 03:26:15;;;;;;;8.82;5.53;;;23.50;99.90;;;;;;5070262;28;20059;-79
2022/09/13 03:29:42;;;;;;;10.25;5.80;;;23.50;99.90;;;;;;5061450;28;20025;-79
2022/09/13 03:32:24;;;;;;;;;;;;;;;;;;;;;
2022/09/13 03:35:06;;;;;;;;;;;;;;;;;;;;;
2022/09/13 03:37:55;;;;;;;10.73;5.82;;;23.50;99.90;;;;;;5064778;28;20127;-79
2022/09/13 03:41:01;;;;;;;;;;;;;;;;;;;;;
2022/09/13 03:43:59;;;;;;;12.07;5.85;;;23.50;99.90;;;;;;5067290;28;20459;-80
2022/09/13 03:46:43;;;;;;;9.80;5.65;;;23.50;99.90;;;;;;5074046;28;20424;-77
2022/09/13 03:49:39;;;;;;;8.00;5.00;;;23.50;99.90;;;;;;5071208;28;20024;-78
2022/09/13 03:52:07;;;;;;;9.98;5.03;;;23.50;99.90;;;;;;5076750;28;20044;-79
2022/09/13 03:54:49;;;;;;;;;;;;;;;;;;;;;
2022/09/13 04:00:50;;;;;;;;;;;;;;;;;;;;;
2022/09/13 04:03:33;;;;;;;14.52;6.10;;;23.40;99.90;;;;;;5061071;28;20108;-79
2022/09/13 04:06:22;;;;;;;10.45;5.47;;;23.40;99.90;;;;;;5061305;28;20462;-79
2022/09/13 04:09:07;;;;;;;12.95;6.07;;;23.40;99.90;;;;;;5074256;28;20036;-78
2022/09/13 04:11:46;;;;;;;13.43;5.90;;;23.40;99.90;;;;;;5064487;28;20025;-79
2022/09/13 04:14:25;;;;;;;15.40;6.38;;;23.40;99.90;;;;;;5081230;28;20028;-80
2022/09/13 04:16:54;;;;;;;8.93;5.30;;;23.40;99.90;;;;;;5066965;28;20052;-80
2022/09/13 04:19:33;;;;;;;10.82;5.15;;;23.40;99.90;;;;;;5070999;28;20021;-79
2022/09/13 04:22:07;;;;;;;6.93;5.22;;;23.40;99.90;;;;;;5070743;28;20039;-79
2022/09/13 04:24:54;;;;;;;15.07;5.88;;;23.40;99.90;;;;;;5071685;28;20013;-79
2022/09/13 04:27:19;;;;;;;10.35;4.88;;;23.40;99.90;;;;;;5067428;28;20499;-79
2022/09/13 04:29:48;;;;;;;12.95;4.60;;;23.40;99.90;;;;;;5075525;28;20031;-77
2022/09/13 04:32:19;;;;;;;10.02;5.10;;;23.40;99.90;;;;;;5076718;28;20055;-78
2022/09/13 04:34:56;;;;;;;8.55;4.88;;;23.40;99.90;;;;;;5062947;28;20025;-79
2022/09/13 04:37:22;;;;;;;7.15;4.90;;;23.50;99.90;;;;;;5058413;28;20044;-77
2022/09/13 04:39:56;;;;;;;11.18;5.00;;;23.50;99.90;;;;;;5063466;28;20016;-79
2022/09/13 04:42:32;;;;;;;9.18;5.07;;;23.50;99.90;;;;;;5060705;28;20074;-79
2022/09/13 04:45:08;;;;;;;;;;;;;;;;;;;;;
2022/09/13 04:47:37;;;;;;;11.20;4.95;;;23.40;99.90;;;;;;5073162;28;20418;-80
2022/09/13 04:50:16;;;;;;;11.38;4.28;;;23.40;99.90;;;;;;5074561;28;20529;-79
2022/09/13 04:53:02;;;;;;;8.38;4.53;;;23.40;99.90;;;;;;5072074;28;20391;-80
2022/09/13 04:55:35;;;;;;;9.65;4.85;;;23.40;99.90;;;;;;5076011;28;20072;-79
2022/09/13 04:58:28;;;;;;;7.80;4.38;;;23.40;99.90;;;;;;5057681;28;20055;-79
2022/09/13 05:01:13;;;;;;;;;;;;;;;;;;;;;
2022/09/13 05:03:44;;;;;;;12.02;4.50;;;23.40;99.90;;;;;;5069763;28;20540;-80
2022/09/13 05:06:22;;;;;;;12.95;5.20;;;23.40;99.90;;;;;;5061855;28;20056;-79
2022/09/13 05:08:56;;;;;;;11.43;5.00;;;23.40;99.90;;;;;;5069725;28;20021;-79
2022/09/13 05:11:30;;;;;;;8.27;4.55;;;23.50;99.90;;;;;;5074159;28;20013;-80
2022/09/13 05:13:59;;;;;;;12.52;4.75;;;23.50;99.90;;;;;;5073077;28;20393;-78
2022/09/13 05:16:45;;;;;;;;;;;;;;;;;;;;;
2022/09/13 05:19:13;;;;;;;10.40;4.70;;;23.40;99.90;;;;;;5068135;28;20119;-78
2022/09/13 05:21:56;;;;;;;13.07;4.75;;;23.50;99.90;;;;;;5066171;28;20109;-80
2022/09/13 05:24:34;;;;;;;;;;;;;;;;;;;;;
2022/09/13 05:27:14;;;;;;;13.55;4.55;;;23.50;99.90;;;;;;5074784;28;20536;-80
2022/09/13 05:30:07;;;;;;;14.85;4.15;;;23.50;99.90;;;;;;5073368;28;20049;-80
2022/09/13 05:32:41;;;;;;;8.05;3.95;;;23.50;99.90;;;;;;5074726;28;20035;-80
2022/09/13 05:35:09;;;;;;;8.82;4.20;;;23.50;99.90;;;;;;5070661;28;20095;-78
2022/09/13 05:37:35;;;;;;;9.40;5.13;;;23.50;99.90;;;;;;5056592;28;20060;-78
2022/09/13 05:40:06;;;;;;;10.55;4.15;;;23.50;99.90;;;;;;5072121;28;20036;-80
2022/09/13 05:42:43;;;;;;;6.40;3.63;;;23.50;99.90;;;;;;5067079;28;20063;-79
2022/09/13 05:45:12;;;;;;;10.02;3.92;;;23.50;99.90;;;;;;5073776;28;20036;-80
2022/09/13 05:47:38;;;;;;;10.57;4.82;;;23.50;99.90;;;;;;5076646;28;20484;-78
2022/09/13 05:50:09;;;;;;;19.38;4.25;;;23.50;99.90;;;;;;5070872;28;20048;-77
2022/09/13 05:52:57;;;;;;;15.18;4.30;;;23.50;99.90;;;;;;5067853;28;20024;-80
2022/09/13 05:55:26;;;;;;;6.05;3.65;;;23.50;99.90;;;;;;5072046;28;20128;-79
2022/09/13 05:58:03;;;;;;;10.38;4.13;;;23.50;99.90;;;;;;5061231;28;20053;-79
2022/09/13 06:00:40;;;;;;;;;;;;;;;;;;;;;
2022/09/13 06:03:19;;;;;;;;;;;;;;;;;;;;;
2022/09/13 06:05:54;;;;;;;11.75;4.72;;;23.50;99.90;;;;;;5067519;28;20119;-81
2022/09/13 06:08:25;;;;;;;9.38;3.95;;;23.60;99.90;;;;;;5061175;28;20028;-79
2022/09/13 06:11:20;;;;;;;15.75;4.03;;;23.60;99.90;;;;;;5071691;28;20031;-79
2022/09/13 06:13:48;;;;;;;9.85;4.38;;;23.50;99.90;;;;;;5070460;28;20499;-79
2022/09/13 06:16:31;;;;;;;10.85;4.15;;;23.50;99.90;;;;;;5071948;28;20025;-79
2022/09/13 06:19:03;;;;;;;12.23;4.25;;;23.50;99.90;;;;;;5074733;28;20017;-78
2022/09/13 06:21:36;;;;;;;10.65;3.90;;;23.60;99.90;;;;;;5073190;28;20126;-79
2022/09/13 06:24:17;;;;;;;9.40;4.68;;;23.60;99.90;;;;;;5068688;28;20020;-79
2022/09/13 06:27:10;;;;;;;10.18;3.20;;;23.60;99.90;;;;;;5058673;28;20025;-78
2022/09/13 06:29:48;;;;;;;8.63;3.97;;;23.60;99.90;;;;;;5058808;28;20051;-79
2022/09/13 06:32:16;;;;;;;10.35;4.43;;;23.60;99.90;;;;;;5058880;28;20028;-78
2022/09/13 06:34:47;;;;;;;8.65;3.75;;;23.70;99.90;;;;;;5061563;28;20122;-79
2022/09/13 06:37:12;;;;;;;10.45;3.28;;;23.70;99.90;;;;;;5061846;28;20049;-78
2022/09/13 06:39:42;;;;;;;12.32;4.40;;;23.70;99.90;;;;;;5064790;28;20558;-79
2022/09/13 06:42:17;;;;;;;10.75;3.60;;;23.70;99.90;;;;;;5066964;28;20493;-78
2022/09/13 06:44:44;;;;;;;12.55;3.60;;;23.70;99.90;;;;;;5070328;28;20017;-79
2022/09/13 06:47:28;;;;;;;;;;;;;;;;;;;;;
2022/09/13 06:50:03;;;;;;;7.60;3.20;;;23.80;99.90;;;;;;5064710;28;20035;-79
2022/09/13 06:52:32;;;;;;;9.40;3.45;;;23.80;99.90;;;;;;5071382;28;20055;-79
2022/09/13 06:55:08;;;;;;;13.93;3.80;;;23.80;99.90;;;;;;5074988;28;20025;-79
2022/09/13 06:57:51;;;;;;;8.43;3.25;;;23.80;99.90;;;;;;5069719;28;20086;-78
2022/09/13 07:00:20;;;;;;;11.70;3.50;;;23.90;99.90;;;;;;5062579;28;20068;-79
2022/09/13 07:03:00;;;;;;;;;;;;;;;;;;;;;
2022/09/13 07:06:03;;;;;;;7.97;3.38;;;23.90;99.90;;;;;;5068640;28;20120;-78
2022/09/13 07:08:32;;;;;;;9.45;3.45;;;23.90;99.90;;;;;;5076339;28;20124;-79
2022/09/13 07:11:30;;;;;;;;;;;;;;;;;;;;;
2022/09/13 07:14:00;;;;;;;12.68;3.40;;;24.00;99.90;;;;;;5061413;28;20089;-80
2022/09/13 07:16:30;;;;;;;9.20;2.70;;;24.00;99.90;;;;;;5060943;28;20525;-78
2022/09/13 07:19:10;;;;;;;16.10;4.72;;;24.10;99.90;;;;;;5062115;28;20013;-79
2022/09/13 07:21:39;;;;;;;;;;;24.10;99.90;;;;;;5063227;28;20572;-79
2022/09/13 07:24:08;;;;;;;8.13;2.72;;;24.10;99.90;;;;;;5065393;28;20288;-79
2022/09/13 07:26:56;;;;;;;10.13;3.80;;;24.20;99.90;;;;;;5071679;28;20477;-79
2022/09/13 07:29:24;;;;;;;12.70;4.07;;;24.20;99.90;;;;;;5066750;28;20052;-78
2022/09/13 07:32:05;;;;;;;;;;;;;;;;;;;;;
2022/09/13 07:34:31;;;;;;;8.52;2.63;;;24.40;99.90;;;;;;5067044;28;20541;-78
2022/09/13 07:36:57;;;;;;;11.35;3.08;;;24.40;99.90;;;;;;5075248;28;20091;-79
2022/09/13 07:39:26;;;;;;;11.73;3.00;;;24.50;99.90;;;;;;5073868;28;20021;-79
2022/09/13 07:42:02;;;;;;;8.95;3.03;;;24.60;99.90;;;;;;5076325;28;20020;-79
2022/09/13 07:44:31;;;;;;;10.00;2.75;;;24.70;99.90;;;;;;5077593;28;20111;-79
2022/09/13 07:47:10;;;;;;;;;;;;;;;;;;;;;
2022/09/13 07:49:53;;;;;;;15.48;3.35;;;24.90;99.90;;;;;;5060729;28;20031;-80
2022/09/13 07:52:24;;;;;;;8.43;2.80;;;25.00;99.90;;;;;;5060827;28;20025;-79
2022/09/13 07:54:59;;;;;;;9.68;2.47;;;25.20;99.90;;;;;;5063378;28;20054;-80
2022/09/13 07:57:26;;;;;;;10.13;3.45;;;25.20;99.90;;;;;;5064197;28;20021;-78
2022/09/13 08:00:08;;;;;;;7.95;2.85;;;25.30;99.90;;;;;;5067239;28;20396;-79
2022/09/13 08:02:50;;;;;;;9.02;2.60;;;25.30;99.90;;;;;;5070524;28;20032;-77
2022/09/13 08:05:21;;;;;;;9.82;2.63;;;25.40;99.90;;;;;;5066376;28;20032;-78
2022/09/13 08:07:47;;;;;;;10.77;2.90;;;25.60;99.90;;;;;;5074168;28;20142;-77
2022/09/13 08:10:40;;;;;;;9.75;3.25;;;25.60;99.90;;;;;;5069683;28;20021;-77
2022/09/13 08:13:11;;;;;;;11.75;2.83;;;25.70;99.90;;;;;;5074171;28;20043;-78
2022/09/13 08:15:52;;;;;;;;;;;;;;;;;;;;;
2022/09/13 08:18:47;;;;;;;11.18;3.28;;;25.80;99.90;;;;;;5076685;28;20127;-77
2022/09/13 08:21:35;;;;;;;14.52;2.97;;;25.90;99.90;;;;;;5065817;28;20669;-78
2022/09/13 08:24:12;;;;;;;9.90;3.60;;;26.00;99.90;;;;;;5061935;28;20079;-78
2022/09/13 08:26:38;;;;;;;5.88;2.70;;;25.90;99.90;;;;;;5063248;28;20504;-78
2022/09/13 08:29:05;;;;;;;8.60;3.20;;;25.90;99.90;;;;;;5061005;28;20024;-78
2022/09/13 08:31:51;;;;;;;;;;;;;;;;;;;;;
2022/09/13 08:34:20;;;;;;;11.18;3.38;;;25.80;99.90;;;;;;5063554;28;20039;-78
2022/09/13 08:36:49;;;;;;;12.70;3.17;;;25.90;99.90;;;;;;5068628;28;20051;-78
2022/09/13 08:39:37;;;;;;;11.05;2.72;;;25.80;99.90;;;;;;5064579;28;20033;-78
2022/09/13 08:42:28;;;;;;;8.98;3.20;;;25.80;99.90;;;;;;5066863;28;20086;-78
2022/09/13 08:45:08;;;;;;;11.65;3.38;;;25.80;99.90;;;;;;5073307;28;20054;-78
2022/09/13 08:48:11;;;;;;;;;;;;;;;;;;;;;
2022/09/13 08:51:17;;;;;;;8.35;2.92;;;25.80;99.90;;;;;;5071600;28;20552;-77
2022/09/13 08:53:57;;;;;;;11.07;2.92;;;25.80;99.90;;;;;;5069420;28;20027;-79
2022/09/13 08:56:38;;;;;;;;;;;;;;;;;;;;;
2022/09/13 09:00:00;;;;;;;12.73;2.63;;;25.80;99.90;;;;;;5063960;28;20077;-77
2022/09/13 09:03:06;;;;;;;9.27;3.22;;;25.80;99.90;;;;;;5064726;28;20040;-77
2022/09/13 09:06:01;;;;;;;15.43;3.42;;;25.80;99.90;;;;;;5070367;28;20029;-79
2022/09/13 09:11:43;;;;;;;11.85;2.85;;;26.00;99.90;;;;;;5067112;28;20496;-78
2022/09/13 09:14:32;;;;;;;11.13;2.60;;;26.00;99.90;;;;;;5072575;28;20038;-79
2022/09/13 09:17:34;;;;;;;;;;;;;;;;;;;;;
2022/09/13 09:20:25;;;;;;;9.52;3.90;;;25.90;99.90;;;;;;5075791;28;20116;-79
2022/09/13 09:22:54;;;;;;;16.70;3.38;;;25.90;99.90;;;;;;5057330;28;20053;-78
2022/09/13 09:25:54;;;;;;;;;;;;;;;;;;;;;
2022/09/13 09:28:23;;;;;;;8.77;2.75;;;25.90;99.90;;;;;;5064310;28;20107;-77
2022/09/13 09:31:03;;;;;;;9.70;2.80;;;25.90;99.90;;;;;;5072291;28;20043;-78
2022/09/13 09:33:58;;;;;;;15.77;2.60;;;25.90;99.90;;;;;;5068640;28;20104;-79
2022/09/13 09:36:53;;;;;;;;;;;;;;;;;;;;;
2022/09/13 09:39:37;;;;;;;8.98;3.17;;;25.80;99.90;;;;;;5066835;28;20093;-78
2022/09/13 09:42:49;;;;;;;14.45;3.55;;;25.90;99.90;;;;;;5072134;28;20024;-79
2022/09/13 09:45:42;;;;;;;;;;;;;;;;;;;;;
2022/09/13 09:48:27;;;;;;;14.35;3.00;;;25.90;99.90;;;;;;5063877;28;20108;-78
2022/09/13 09:51:10;;;;;;;;;;;;;;;;;;;;;
2022/09/13 09:53:50;;;;;;;12.05;3.08;;;26.00;99.90;;;;;;5065532;28;20104;-77
2022/09/13 09:59:28;;;;;;;10.00;3.10;;;26.00;99.90;;;;;;5062824;28;20032;-79
2022/09/13 10:02:06;;;;;;;;;;;;;;;;;;;;;
2022/09/13 10:04:35;;;;;;;11.93;2.97;;;26.20;99.90;;;;;;5072060;28;20103;-78
2022/09/13 10:07:52;;;;;;;8.55;2.75;;;26.20;99.90;;;;;;5071337;28;20480;-78
2022/09/13 10:10:25;;;;;;;10.48;2.67;;;26.40;99.90;;;;;;5062220;28;20036;-79
2022/09/13 10:13:05;;;;;;;;;;;;;;;;;;;;;
2022/09/13 10:15:34;;;;;;;11.90;3.20;;;26.50;99.90;;;;;;5075241;28;20492;-77
2022/09/13 10:18:17;;;;;;;5.55;2.28;;;26.60;99.90;;;;;;5075750;28;20097;-79
2022/09/13 10:21:24;;;;;;;10.30;2.53;;;26.70;99.90;;;;;;5072720;28;20025;-79
2022/09/13 10:24:10;;;;;;;7.32;2.55;;;26.80;99.90;;;;;;5057022;28;20121;-78
2022/09/13 10:26:38;;;;;;;6.47;2.15;;;26.80;99.90;;;;;;5073517;28;20393;-78
2022/09/13 10:29:09;;;;;;;12.30;2.30;;;26.80;99.90;;;;;;5060271;28;20071;-77
2022/09/13 10:32:05;;;;;;;;;;;27.10;99.90;;;;;;5063420;28;20036;-79
2022/09/13 10:34:43;;;;;;;7.68;2.78;;;27.30;99.90;;;;;;5061016;28;19950;-78
2022/09/13 10:37:30;;;;;;;8.13;2.20;;;27.20;99.90;;;;;;5065336;28;20107;-78
2022/09/13 10:40:26;;;;;;;;;;;;;;;;;;;;;
2022/09/13 10:42:59;;;;;;;10.00;2.20;;;27.60;99.90;;;;;;5071409;28;20031;-79
2022/09/13 10:45:30;;;;;;;14.75;2.65;;;27.70;99.90;;;;;;5074016;28;20771;-79
2022/09/13 10:48:40;;;;;;;;;;;;;;;;;;;;;
2022/09/13 10:51:16;;;;;;;;;;;27.80;99.90;;;;;;5079088;28;20112;-80
2022/09/13 10:53:55;;;;;;;;;;;;;;;;;;;;;
2022/09/13 10:56:32;;;;;;;7.13;2.08;;;28.20;99.90;;;;;;5067215;28;20023;-79
2022/09/13 10:59:24;;;;;;;11.02;2.30;;;28.20;99.90;;;;;;5077209;28;20029;-79
2022/09/13 11:02:21;;;;;;;10.88;2.83;;;28.40;99.90;;;;;;5066973;28;20074;-79
2022/09/13 11:05:17;;;;;;;9.00;2.60;;;28.50;99.90;;;;;;5062104;28;20071;-77
2022/09/13 11:07:43;;;;;;;4.55;1.60;;;28.40;99.90;;;;;;5062920;28;20017;-78
2022/09/13 11:10:28;;;;;;;12.73;2.35;;;28.50;99.90;;;;;;5063669;28;20113;-77
2022/09/13 11:13:22;;;;;;;12.30;2.58;;;28.60;99.90;;;;;;5066004;28;20481;-78
2022/09/13 11:16:18;;;;;;;9.02;2.15;;;28.60;99.90;;;;;;5064590;28;20056;-78
2022/09/13 11:18:50;;;;;;;7.88;2.13;;;28.60;99.90;;;;;;5069565;28;20101;-78
2022/09/13 11:21:58;;;;;;;8.30;2.05;;;28.80;99.90;;;;;;5076148;28;20025;-78
2022/09/13 11:24:37;;;;;;;15.30;2.97;;;28.90;99.90;;;;;;5061340;28;20382;-79
2022/09/13 11:27:27;;;;;;;6.40;1.75;;;29.10;99.90;;;;;;5076211;28;20017;-78
2022/09/13 11:30:21;;;;;;;7.67;2.30;;;29.00;99.90;;;;;;5074915;28;20028;-79
2022/09/13 11:33:22;;;;;;;8.00;2.20;;;28.80;99.90;;;;;;5077658;28;20273;-79
2022/09/13 11:36:23;;;;;;;8.75;2.33;;;28.60;99.90;;;;;;5074912;28;20561;-79
2022/09/13 11:39:23;;;;;;;8.80;2.05;;;28.60;99.90;;;;;;5060803;28;20404;-79
2022/09/13 11:42:14;;;;;;;;;;;;;;;;;;;;;
2022/09/13 11:51:43;;;;;;;;;;;;;;;;;;;;;
2022/09/13 11:54:49;;;;;;;9.13;2.72;;;28.40;99.90;;;;;;5073345;28;20127;-79
2022/09/13 11:57:28;;;;;;;7.40;2.03;;;28.20;99.90;;;;;;5071098;28;20079;-79
2022/09/13 12:00:29;;;;;;;8.73;2.00;;;28.10;99.90;;;;;;5076770;28;20020;-79
2022/09/13 12:06:52;;;;;;;5.43;1.98;;;28.20;99.90;;;;;;5067797;28;20101;-80
2022/09/13 12:10:09;;;;;;;12.80;2.47;;;28.20;99.90;;;;;;5057011;28;20508;-80
2022/09/13 12:13:04;;;;;;;7.75;2.55;;;28.20;99.90;;;;;;5057271;28;20029;-79
2022/09/13 12:16:22;;;;;;;7.88;2.25;;;28.20;99.90;;;;;;5064775;28;20059;-80
2022/09/13 12:22:31;;;;;;;;;;;;;;;;;;;;;
2022/09/13 12:28:22;;;;;;;7.30;2.38;;;28.00;99.90;;;;;;5063597;28;19912;-80
2022/09/13 12:31:17;;;;;;;8.55;2.25;;;28.00;99.90;;;;;;5072527;28;20038;-80
2022/09/13 12:33:51;;;;;;;10.85;2.92;;;28.10;99.90;;;;;;5067434;28;20032;-80
2022/09/13 12:36:24;;;;;;;8.60;2.55;;;28.20;99.90;;;;;;5072854;28;20044;-80
2022/09/13 12:39:56;;;;;;;11.43;2.22;;;28.20;99.90;;;;;;5077047;28;20029;-80
2022/09/13 12:42:53;;;;;;;9.43;2.05;;;28.10;99.90;;;;;;5013745;28;20045;-80
2022/09/13 12:46:03;;;;;;;10.77;2.35;;;28.20;99.90;;;;;;4997763;28;20030;-80
2022/09/13 12:48:58;;;;;;;;;;;;;;;;;;;;;
2022/09/13 12:52:00;;;;;;;9.05;2.95;;;28.10;99.90;;;;;;5070314;28;20135;-80
2022/09/13 12:55:01;;;;;;;13.52;2.53;;;28.10;99.90;;;;;;5072425;28;20031;-81
2022/09/13 12:58:06;;;;;;;9.30;2.05;;;28.10;99.90;;;;;;5074936;28;20028;-81
2022/09/13 13:01:05;;;;;;;;;;;;;;;;;;;;;
2022/09/13 13:04:20;;;;;;;9.63;2.42;;;28.00;99.90;;;;;;5059424;28;20564;-81
2022/09/13 13:07:46;;;;;;;;;;;;;;;;;;;;;
2022/09/13 13:10:40;;;;;;;10.57;2.42;;;27.90;99.90;;;;;;5062804;28;20084;-79
2022/09/13 13:13:28;;;;;;;6.90;1.80;;;27.80;99.90;;;;;;5062264;28;20036;-79
2022/09/13 13:16:07;;;;;;;11.05;2.65;;;27.70;99.90;;;;;;5070022;28;20028;-79
2022/09/13 13:19:15;;;;;;;10.88;2.92;;;27.70;99.90;;;;;;5072210;28;20119;-79
2022/09/13 13:22:11;;;;;;;;;;;;;;;;;;;;;
2022/09/13 13:24:46;;;;;;;10.32;2.28;;;27.50;99.90;;;;;;5071908;28;20015;-80
2022/09/13 13:27:36;;;;;;;11.35;2.88;;;27.50;99.90;;;;;;5079793;28;20032;-80
2022/09/13 13:30:41;;;;;;;9.13;2.35;;;27.50;99.90;;;;;;5074940;28;20017;-80
2022/09/13 13:33:25;;;;;;;8.32;2.60;;;27.50;99.90;;;;;;5073671;28;20040;-79
2022/09/13 13:36:24;;;;;;;11.52;3.08;;;27.50;99.90;;;;;;5057084;28;20052;-80
2022/09/13 13:39:43;;;;;;;7.97;2.30;;;27.60;99.90;;;;;;5051413;28;20065;-80
2022/09/13 13:42:34;;;;;;;8.40;2.35;;;27.60;99.90;;;;;;5061112;28;20490;-80
2022/09/13 13:45:05;;;;;;;9.90;2.70;;;27.60;99.90;;;;;;5060864;28;20481;-79
2022/09/13 13:47:33;;;;;;;15.52;3.50;;;27.60;99.90;;;;;;5063201;28;20028;-80
2022/09/13 13:50:19;;;;;;;12.52;2.30;;;27.50;99.90;;;;;;5069392;28;20024;-79
2022/09/13 13:53:13;;;;;;;9.45;2.55;;;27.50;99.90;;;;;;5069952;28;20056;-80
2022/09/13 13:56:15;;;;;;;8.90;3.15;;;27.50;99.90;;;;;;5067532;28;20025;-80
2022/09/13 14:02:23;;;;;;;9.30;2.50;;;27.40;99.90;;;;;;5070613;28;20063;-79
2022/09/13 14:05:48;;;;;;;14.88;2.90;;;27.40;99.90;;;;;;5067328;28;20489;-79
2022/09/13 14:08:41;;;;;;;;;;;;;;;;;;;;;
2022/09/13 14:14:50;;;;;;;8.30;2.25;;;27.40;99.90;;;;;;5070187;28;20029;-80
2022/09/13 14:17:59;;;;;;;;;;;;;;;;;;;;;
2022/09/13 14:20:36;;;;;;;8.82;2.15;;;27.70;99.90;;;;;;5070366;28;20080;-79
2022/09/13 14:23:18;;;;;;;7.03;2.17;;;28.00;99.90;;;;;;5064163;28;20116;-79
2022/09/13 14:25:52;;;;;;;7.72;2.17;;;28.30;99.90;;;;;;5073577;28;20020;-79
2022/09/13 14:28:45;;;;;;;;;;;;;;;;;;;;;
2022/09/13 14:34:42;;;;;;;8.00;1.58;;;28.60;99.90;;;;;;5068870;28;20508;-79
2022/09/13 14:37:28;;;;;;;11.77;2.40;;;28.60;99.90;;;;;;5062798;28;20052;-79
2022/09/13 14:40:21;;;;;;;7.22;1.92;;;28.60;99.90;;;;;;5077026;28;20017;-79
2022/09/13 14:42:53;;;;;;;10.13;2.65;;;28.60;99.90;;;;;;5054039;28;20037;-79
2022/09/13 14:45:29;;;;;;;12.32;2.20;;;28.50;99.90;;;;;;5070433;28;20033;-78
2022/09/13 14:48:45;;;;;;;9.40;2.60;;;28.50;99.90;;;;;;5046352;28;20081;-78
2022/09/13 14:51:58;;;;;;;12.90;2.42;;;28.40;99.90;;;;;;5070868;28;20028;-78
2022/09/13 14:55:09;;;;;;;;;;;;;;;;;;;;;
2022/09/13 14:57:45;;;;;;;8.60;2.80;;;28.20;99.90;;;;;;5068493;28;20504;-80
2022/09/13 15:00:49;;;;;;;9.98;2.80;;;28.20;99.90;;;;;;5065897;28;20032;-79
2022/09/13 15:03:16;;;;;;;8.63;2.22;;;28.00;99.90;;;;;;5066363;28;20021;-78
2022/09/13 15:06:13;;;;;;;7.47;2.50;;;28.10;99.90;;;;;;5074055;28;20066;-79
2022/09/13 15:08:48;;;;;;;14.20;3.05;;;28.00;99.90;;;;;;5079369;28;20025;-79
2022/09/13 15:11:36;;;;;;;10.00;2.28;;;27.80;99.90;;;;;;5072902;28;20036;-79
2022/09/13 15:14:02;;;;;;;11.57;3.03;;;27.70;99.90;;;;;;5065786;28;20028;-80
2022/09/13 15:16:49;;;;;;;10.90;2.70;;;27.70;99.90;;;;;;5066504;28;20059;-79
2022/09/13 15:19:33;;;;;;;9.25;2.47;;;27.60;99.90;;;;;;5060046;28;20085;-80
2022/09/13 15:22:35;;;;;;;;;;;;;;;;;;;;;
2022/09/13 15:25:27;;;;;;;10.45;2.95;;;27.60;99.90;;;;;;5074549;28;20103;-80
2022/09/13 15:28:17;;;;;;;10.60;2.97;;;27.50;99.90;;;;;;5070711;28;20051;-79
2022/09/13 15:30:53;;;;;;;7.45;2.88;;;27.40;99.90;;;;;;5058433;28;20020;-79
2022/09/13 15:33:36;;;;;;;9.63;2.55;;;27.20;99.90;;;;;;5071715;28;20033;-78
2022/09/13 15:36:29;;;;;;;8.25;3.22;;;27.10;99.90;;;;;;5069495;28;20079;-78
2022/09/13 15:39:12;;;;;;;13.88;3.15;;;27.10;99.90;;;;;;5074968;28;20024;-78
2022/09/13 15:41:53;;;;;;;8.90;3.28;;;26.90;99.90;;;;;;5075660;28;20476;-79
2022/09/13 15:44:42;;;;;;;9.48;3.40;;;26.90;99.90;;;;;;5075318;28;20096;-79
2022/09/13 15:47:25;;;;;;;9.30;3.42;;;26.80;99.90;;;;;;5078333;28;20021;-79
2022/09/13 15:50:48;;;;;;;;;;;;;;;;;;;;;
2022/09/13 15:53:23;;;;;;;7.53;2.95;;;26.60;99.90;;;;;;5056485;28;20111;-78
2022/09/13 15:59:00;;;;;;;11.60;3.35;;;26.60;99.90;;;;;;5051695;28;20037;-79
2022/09/13 16:01:34;;;;;;;12.75;3.17;;;26.60;99.90;;;;;;5058215;28;20044;-79
2022/09/13 16:04:06;;;;;;;14.82;3.58;;;26.60;99.90;;;;;;5067083;28;20016;-79